<?xml version='1.0' encoding='UTF-8'?><gpx version="1.1" creator="JPX - https://github.com/jenetics/jpx" xmlns="http://www.topografix.com/GPX/1/1"><trk><trkseg><trkpt lat="42.8914453" lon="2.2555134"><ele>471.0</ele><time>2026-04-18T13:35:19.198Z</time></trkpt><trkpt lat="42.8914244" lon="2.2554265"><ele>471.0</ele><time>2026-04-18T13:35:21.202Z</time></trkpt><trkpt lat="42.891393" lon="2.2553258"><ele>471.0</ele><time>2026-04-18T13:35:23.206Z</time></trkpt><trkpt lat="42.8913394" lon="2.2552077"><ele>471.0</ele><time>2026-04-18T13:35:25.198Z</time></trkpt><trkpt lat="42.8912799" lon="2.2550606"><ele>471.0</ele><time>2026-04-18T13:35:27.21Z</time></trkpt><trkpt lat="42.8912501" lon="2.2549741"><ele>471.0</ele><time>2026-04-18T13:35:28.204Z</time></trkpt><trkpt lat="42.8912214" lon="2.2548813"><ele>468.3333333333333</ele><time>2026-04-18T13:35:29.206Z</time></trkpt><trkpt lat="42.8911979" lon="2.254778"><ele>465.66666666666663</ele><time>2026-04-18T13:35:30.194Z</time></trkpt><trkpt lat="42.8911856" lon="2.2546649"><ele>463.0</ele><time>2026-04-18T13:35:31.188Z</time></trkpt><trkpt lat="42.8911637" lon="2.2545518"><ele>460.3333333333333</ele><time>2026-04-18T13:35:32.209Z</time></trkpt><trkpt lat="42.8911297" lon="2.2544418"><ele>457.66666666666663</ele><time>2026-04-18T13:35:33.2Z</time></trkpt><trkpt lat="42.8910897" lon="2.2543338"><ele>455.0</ele><time>2026-04-18T13:35:34.2Z</time></trkpt><trkpt lat="42.8910403" lon="2.2542248"><ele>455.0</ele><time>2026-04-18T13:35:35.207Z</time></trkpt><trkpt lat="42.8909935" lon="2.2541057"><ele>455.0</ele><time>2026-04-18T13:35:36.213Z</time></trkpt><trkpt lat="42.8909538" lon="2.2539788"><ele>455.0</ele><time>2026-04-18T13:35:37.206Z</time></trkpt><trkpt lat="42.8909159" lon="2.2538475"><ele>455.0</ele><time>2026-04-18T13:35:38.199Z</time></trkpt><trkpt lat="42.8909043" lon="2.2537008"><ele>455.0</ele><time>2026-04-18T13:35:39.191Z</time></trkpt><trkpt lat="42.8908927" lon="2.253559"><ele>457.0</ele><time>2026-04-18T13:35:40.201Z</time></trkpt><trkpt lat="42.8908672" lon="2.2534179"><ele>459.0</ele><time>2026-04-18T13:35:41.202Z</time></trkpt><trkpt lat="42.8908238" lon="2.2532743"><ele>461.0</ele><time>2026-04-18T13:35:42.198Z</time></trkpt><trkpt lat="42.8907818" lon="2.2531305"><ele>463.0</ele><time>2026-04-18T13:35:43.215Z</time></trkpt><trkpt lat="42.8907404" lon="2.2529869"><ele>465.0</ele><time>2026-04-18T13:35:44.193Z</time></trkpt><trkpt lat="42.8907006" lon="2.2528385"><ele>465.0</ele><time>2026-04-18T13:35:45.215Z</time></trkpt><trkpt lat="42.8906731" lon="2.2526861"><ele>465.0</ele><time>2026-04-18T13:35:46.214Z</time></trkpt><trkpt lat="42.8906461" lon="2.2525355"><ele>465.0</ele><time>2026-04-18T13:35:47.179Z</time></trkpt><trkpt lat="42.8906384" lon="2.2523782"><ele>465.0</ele><time>2026-04-18T13:35:48.22Z</time></trkpt><trkpt lat="42.8906313" lon="2.2522326"><ele>465.2</ele><time>2026-04-18T13:35:49.19Z</time></trkpt><trkpt lat="42.8906269" lon="2.2521036"><ele>465.4</ele><time>2026-04-18T13:35:50.2Z</time></trkpt><trkpt lat="42.8906261" lon="2.2519776"><ele>465.6</ele><time>2026-04-18T13:35:51.194Z</time></trkpt><trkpt lat="42.8906416" lon="2.251848"><ele>465.8</ele><time>2026-04-18T13:35:52.183Z</time></trkpt><trkpt lat="42.8906924" lon="2.2517204"><ele>466.0</ele><time>2026-04-18T13:35:53.198Z</time></trkpt><trkpt lat="42.8907764" lon="2.2516239"><ele>466.0</ele><time>2026-04-18T13:35:54.206Z</time></trkpt><trkpt lat="42.8908675" lon="2.2515457"><ele>466.0</ele><time>2026-04-18T13:35:55.2Z</time></trkpt><trkpt lat="42.89096" lon="2.2514624"><ele>466.0</ele><time>2026-04-18T13:35:56.208Z</time></trkpt><trkpt lat="42.8910436" lon="2.2513643"><ele>466.0</ele><time>2026-04-18T13:35:57.199Z</time></trkpt><trkpt lat="42.8911017" lon="2.2512384"><ele>466.0</ele><time>2026-04-18T13:35:58.197Z</time></trkpt><trkpt lat="42.8911399" lon="2.2510915"><ele>463.6</ele><time>2026-04-18T13:35:59.194Z</time></trkpt><trkpt lat="42.8911526" lon="2.2509307"><ele>461.20000000000005</ele><time>2026-04-18T13:36:00.206Z</time></trkpt><trkpt lat="42.891163" lon="2.2507743"><ele>458.79999999999995</ele><time>2026-04-18T13:36:01.188Z</time></trkpt><trkpt lat="42.891178" lon="2.2506234"><ele>456.4</ele><time>2026-04-18T13:36:02.192Z</time></trkpt><trkpt lat="42.8911976" lon="2.2504865"><ele>454.0</ele><time>2026-04-18T13:36:03.187Z</time></trkpt><trkpt lat="42.8912239" lon="2.2503758"><ele>454.00000000000006</ele><time>2026-04-18T13:36:04.208Z</time></trkpt><trkpt lat="42.8913122" lon="2.2502902"><ele>454.0</ele><time>2026-04-18T13:36:06.199Z</time></trkpt><trkpt lat="42.8913753" lon="2.2502945"><ele>454.0</ele><time>2026-04-18T13:36:07.202Z</time></trkpt><trkpt lat="42.8914417" lon="2.2503616"><ele>454.0</ele><time>2026-04-18T13:36:08.185Z</time></trkpt><trkpt lat="42.8914881" lon="2.2504461"><ele>454.00000000000006</ele><time>2026-04-18T13:36:09.19Z</time></trkpt><trkpt lat="42.8915317" lon="2.2505396"><ele>454.0</ele><time>2026-04-18T13:36:10.212Z</time></trkpt><trkpt lat="42.8915757" lon="2.2506486"><ele>452.75</ele><time>2026-04-18T13:36:11.193Z</time></trkpt><trkpt lat="42.8916221" lon="2.2507716"><ele>451.5</ele><time>2026-04-18T13:36:12.196Z</time></trkpt><trkpt lat="42.8916696" lon="2.2509119"><ele>450.25</ele><time>2026-04-18T13:36:13.193Z</time></trkpt><trkpt lat="42.891721" lon="2.2510617"><ele>449.0</ele><time>2026-04-18T13:36:14.198Z</time></trkpt><trkpt lat="42.8917753" lon="2.2512116"><ele>446.5</ele><time>2026-04-18T13:36:15.191Z</time></trkpt><trkpt lat="42.8918292" lon="2.2513539"><ele>444.0</ele><time>2026-04-18T13:36:16.207Z</time></trkpt><trkpt lat="42.8919138" lon="2.2514771"><ele>441.5</ele><time>2026-04-18T13:36:17.193Z</time></trkpt><trkpt lat="42.89202" lon="2.2515764"><ele>439.0</ele><time>2026-04-18T13:36:18.198Z</time></trkpt><trkpt lat="42.8921429" lon="2.2516535"><ele>438.75</ele><time>2026-04-18T13:36:19.218Z</time></trkpt><trkpt lat="42.8922671" lon="2.2517372"><ele>438.5</ele><time>2026-04-18T13:36:20.187Z</time></trkpt><trkpt lat="42.8923805" lon="2.2518237"><ele>438.25</ele><time>2026-04-18T13:36:21.19Z</time></trkpt><trkpt lat="42.892474" lon="2.251935"><ele>438.0</ele><time>2026-04-18T13:36:22.184Z</time></trkpt><trkpt lat="42.8925755" lon="2.2520599"><ele>436.4</ele><time>2026-04-18T13:36:23.195Z</time></trkpt><trkpt lat="42.8926307" lon="2.2522318"><ele>434.79999999999995</ele><time>2026-04-18T13:36:24.213Z</time></trkpt><trkpt lat="42.8926657" lon="2.2523785"><ele>433.2</ele><time>2026-04-18T13:36:25.205Z</time></trkpt><trkpt lat="42.8926912" lon="2.2524889"><ele>431.6</ele><time>2026-04-18T13:36:26.218Z</time></trkpt><trkpt lat="42.8927352" lon="2.2525767"><ele>430.0</ele><time>2026-04-18T13:36:27.19Z</time></trkpt><trkpt lat="42.8928217" lon="2.2526225"><ele>430.0</ele><time>2026-04-18T13:36:28.207Z</time></trkpt><trkpt lat="42.8929418" lon="2.252611"><ele>430.0</ele><time>2026-04-18T13:36:29.191Z</time></trkpt><trkpt lat="42.8930702" lon="2.2525406"><ele>430.0</ele><time>2026-04-18T13:36:30.211Z</time></trkpt><trkpt lat="42.8932126" lon="2.2524538"><ele>430.0</ele><time>2026-04-18T13:36:31.23Z</time></trkpt><trkpt lat="42.8933452" lon="2.252369"><ele>426.0</ele><time>2026-04-18T13:36:32.201Z</time></trkpt><trkpt lat="42.893481" lon="2.2522759"><ele>422.0</ele><time>2026-04-18T13:36:33.193Z</time></trkpt><trkpt lat="42.8936075" lon="2.2521316"><ele>418.0</ele><time>2026-04-18T13:36:34.2Z</time></trkpt><trkpt lat="42.893739" lon="2.2519767"><ele>418.0</ele><time>2026-04-18T13:36:35.189Z</time></trkpt><trkpt lat="42.8938646" lon="2.2518262"><ele>418.0</ele><time>2026-04-18T13:36:36.187Z</time></trkpt><trkpt lat="42.893971" lon="2.2516775"><ele>418.0</ele><time>2026-04-18T13:36:37.194Z</time></trkpt><trkpt lat="42.8940664" lon="2.2515271"><ele>418.33333333333337</ele><time>2026-04-18T13:36:38.206Z</time></trkpt><trkpt lat="42.894162" lon="2.2513689"><ele>418.66666666666663</ele><time>2026-04-18T13:36:39.19Z</time></trkpt><trkpt lat="42.8942562" lon="2.2512002"><ele>419.0</ele><time>2026-04-18T13:36:40.19Z</time></trkpt><trkpt lat="42.8943499" lon="2.2510365"><ele>416.25</ele><time>2026-04-18T13:36:41.204Z</time></trkpt><trkpt lat="42.8944362" lon="2.2508811"><ele>413.5</ele><time>2026-04-18T13:36:42.204Z</time></trkpt><trkpt lat="42.8945132" lon="2.2507232"><ele>410.75</ele><time>2026-04-18T13:36:43.237Z</time></trkpt><trkpt lat="42.894576" lon="2.2505492"><ele>408.0</ele><time>2026-04-18T13:36:44.193Z</time></trkpt><trkpt lat="42.8946347" lon="2.250369"><ele>407.0</ele><time>2026-04-18T13:36:45.19Z</time></trkpt><trkpt lat="42.8946929" lon="2.2501924"><ele>406.0</ele><time>2026-04-18T13:36:46.22Z</time></trkpt><trkpt lat="42.8947393" lon="2.250027"><ele>405.0</ele><time>2026-04-18T13:36:47.205Z</time></trkpt><trkpt lat="42.8947735" lon="2.249886"><ele>404.0</ele><time>2026-04-18T13:36:48.213Z</time></trkpt><trkpt lat="42.8947914" lon="2.2497488"><ele>403.2</ele><time>2026-04-18T13:36:49.199Z</time></trkpt><trkpt lat="42.8947684" lon="2.2495854"><ele>402.4</ele><time>2026-04-18T13:36:50.199Z</time></trkpt><trkpt lat="42.8947043" lon="2.2494296"><ele>401.6</ele><time>2026-04-18T13:36:51.18Z</time></trkpt><trkpt lat="42.8946577" lon="2.2493052"><ele>400.8</ele><time>2026-04-18T13:36:52.225Z</time></trkpt><trkpt lat="42.8946406" lon="2.2492185"><ele>400.0</ele><time>2026-04-18T13:36:53.186Z</time></trkpt><trkpt lat="42.8946329" lon="2.2491278"><ele>400.0</ele><time>2026-04-18T13:36:54.19Z</time></trkpt><trkpt lat="42.8946509" lon="2.2490444"><ele>400.0</ele><time>2026-04-18T13:36:55.189Z</time></trkpt><trkpt lat="42.8947706" lon="2.2489579"><ele>400.0</ele><time>2026-04-18T13:36:57.18Z</time></trkpt><trkpt lat="42.8948581" lon="2.2489223"><ele>400.0</ele><time>2026-04-18T13:36:58.197Z</time></trkpt><trkpt lat="42.8949429" lon="2.2489008"><ele>400.0</ele><time>2026-04-18T13:36:59.182Z</time></trkpt><trkpt lat="42.895032" lon="2.2488814"><ele>398.6</ele><time>2026-04-18T13:37:00.204Z</time></trkpt><trkpt lat="42.8951207" lon="2.2488802"><ele>397.2</ele><time>2026-04-18T13:37:01.189Z</time></trkpt><trkpt lat="42.895204" lon="2.2489122"><ele>395.79999999999995</ele><time>2026-04-18T13:37:02.194Z</time></trkpt><trkpt lat="42.8952905" lon="2.2489822"><ele>394.4</ele><time>2026-04-18T13:37:03.194Z</time></trkpt><trkpt lat="42.8953676" lon="2.2490575"><ele>393.0</ele><time>2026-04-18T13:37:04.2Z</time></trkpt><trkpt lat="42.8954426" lon="2.2491229"><ele>393.0</ele><time>2026-04-18T13:37:05.199Z</time></trkpt><trkpt lat="42.8955278" lon="2.2491744"><ele>393.0</ele><time>2026-04-18T13:37:06.195Z</time></trkpt><trkpt lat="42.8956192" lon="2.2492227"><ele>393.0</ele><time>2026-04-18T13:37:07.206Z</time></trkpt><trkpt lat="42.8956973" lon="2.2492725"><ele>393.0</ele><time>2026-04-18T13:37:08.206Z</time></trkpt><trkpt lat="42.8957791" lon="2.2493273"><ele>393.0</ele><time>2026-04-18T13:37:09.207Z</time></trkpt><trkpt lat="42.8958609" lon="2.2493818"><ele>392.3333333333333</ele><time>2026-04-18T13:37:10.215Z</time></trkpt><trkpt lat="42.8959334" lon="2.2494216"><ele>391.66666666666663</ele><time>2026-04-18T13:37:11.201Z</time></trkpt><trkpt lat="42.8960091" lon="2.2494713"><ele>391.0</ele><time>2026-04-18T13:37:12.201Z</time></trkpt><trkpt lat="42.8960826" lon="2.2495162"><ele>390.3333333333333</ele><time>2026-04-18T13:37:13.201Z</time></trkpt><trkpt lat="42.8961591" lon="2.249534"><ele>389.66666666666663</ele><time>2026-04-18T13:37:14.207Z</time></trkpt><trkpt lat="42.8962386" lon="2.2495445"><ele>389.0</ele><time>2026-04-18T13:37:15.193Z</time></trkpt><trkpt lat="42.8963216" lon="2.2495149"><ele>388.99999999999994</ele><time>2026-04-18T13:37:16.205Z</time></trkpt><trkpt lat="42.8963884" lon="2.2494647"><ele>389.0</ele><time>2026-04-18T13:37:17.206Z</time></trkpt><trkpt lat="42.8964577" lon="2.249408"><ele>389.0</ele><time>2026-04-18T13:37:18.193Z</time></trkpt><trkpt lat="42.896504" lon="2.2493268"><ele>389.0</ele><time>2026-04-18T13:37:19.202Z</time></trkpt><trkpt lat="42.8965397" lon="2.2492421"><ele>388.99999999999994</ele><time>2026-04-18T13:37:20.204Z</time></trkpt><trkpt lat="42.8965624" lon="2.2491537"><ele>389.0</ele><time>2026-04-18T13:37:21.194Z</time></trkpt><trkpt lat="42.896591" lon="2.2490391"><ele>389.0</ele><time>2026-04-18T13:37:23.202Z</time></trkpt></trkseg></trk></gpx>